createdAt,value
2023-04-18T00:02:20.427Z,79.30
2023-04-18T00:04:47.848Z,79.30
2023-04-18T00:07:17.397Z,79.20
2023-04-18T00:09:45.620Z,79.10
2023-04-18T00:12:12.712Z,79.00
2023-04-18T00:14:41.059Z,79.00
2023-04-18T00:17:09.198Z,79.10
2023-04-18T00:19:43.260Z,79.00
2023-04-18T00:22:11.381Z,79.10
2023-04-18T00:24:38.552Z,79.00
2023-04-18T00:27:06.165Z,79.00
2023-04-18T00:29:33.421Z,79.10
2023-04-18T00:32:01.764Z,79.10
2023-04-18T00:34:30.944Z,79.00
2023-04-18T00:36:58.090Z,79.00
2023-04-18T00:39:25.752Z,79.10
2023-04-18T00:41:53.809Z,79.30
2023-04-18T00:44:20.916Z,79.40
2023-04-18T00:46:48.299Z,79.40
2023-04-18T00:49:15.685Z,79.50
2023-04-18T00:51:42.847Z,79.50
2023-04-18T00:54:13.388Z,79.60
2023-04-18T00:56:40.783Z,79.60
2023-04-18T00:59:07.853Z,79.60
2023-04-18T01:01:34.957Z,79.60
2023-04-18T01:04:02.870Z,79.60
2023-04-18T01:06:30.025Z,79.60
2023-04-18T01:08:57.112Z,79.70
2023-04-18T01:11:25.234Z,79.70
2023-04-18T01:14:06.006Z,79.80
2023-04-18T01:16:37.213Z,79.70
2023-04-18T01:19:04.434Z,79.80
2023-04-18T01:21:33.875Z,79.80
2023-04-18T01:24:07.857Z,79.80
2023-04-18T01:26:34.910Z,79.60
2023-04-18T01:29:05.231Z,79.60
2023-04-18T01:31:36.610Z,79.70
2023-04-18T01:34:04.454Z,79.60
2023-04-18T01:36:32.028Z,79.70
2023-04-18T01:38:59.708Z,79.70
2023-04-18T01:41:29.087Z,79.70
2023-04-18T01:43:56.102Z,79.70
2023-04-18T01:46:23.267Z,79.70
2023-04-18T01:48:50.747Z,79.70
2023-04-18T01:51:21.689Z,79.80
2023-04-18T01:53:48.758Z,79.60
2023-04-18T01:56:15.800Z,79.60
2023-04-18T01:58:42.782Z,79.50
2023-04-18T02:01:09.857Z,79.50
2023-04-18T02:03:37.506Z,79.50
2023-04-18T02:06:05.146Z,79.50
2023-04-18T02:08:35.683Z,79.40
2023-04-18T02:11:05.493Z,79.40
2023-04-18T02:13:32.587Z,79.30
2023-04-18T02:15:59.895Z,79.30
2023-04-18T02:18:27.530Z,78.80
2023-04-18T02:20:54.555Z,78.70
2023-04-18T02:23:25.752Z,78.60
2023-04-18T02:25:55.673Z,78.50
2023-04-18T02:28:25.819Z,78.40
2023-04-18T02:30:55.980Z,78.20
2023-04-18T02:33:23.826Z,78.10
2023-04-18T02:35:52.727Z,77.80
2023-04-18T02:38:20.834Z,77.90
2023-04-18T02:40:52.327Z,77.80
2023-04-18T02:43:20.942Z,77.70
2023-04-18T02:45:48.076Z,77.60
2023-04-18T02:48:15.077Z,77.60
2023-04-18T02:50:42.222Z,77.50
2023-04-18T02:53:10.486Z,77.50
2023-04-18T02:55:51.351Z,77.40
2023-04-18T02:58:19.854Z,77.40
2023-04-18T03:01:08.898Z,77.20
2023-04-18T03:03:53.659Z,77.30
2023-04-18T03:06:37.382Z,77.50
2023-04-18T03:09:04.692Z,77.50
2023-04-18T03:11:34.262Z,77.50
2023-04-18T03:14:02.880Z,77.40
2023-04-18T03:16:37.585Z,77.50
2023-04-18T03:19:06.829Z,77.50
2023-04-18T03:21:34.399Z,77.50
2023-04-18T03:24:01.588Z,77.50
2023-04-18T03:26:28.698Z,77.50
2023-04-18T03:28:57.042Z,77.50
2023-04-18T03:31:25.558Z,77.30
2023-04-18T03:33:52.803Z,77.40
2023-04-18T03:36:25.287Z,77.20
2023-04-18T03:38:55.232Z,77.00
2023-04-18T03:41:22.440Z,76.60
2023-04-18T03:43:49.453Z,76.60
2023-04-18T03:46:17.727Z,76.60
2023-04-18T03:48:45.579Z,76.50
2023-04-18T03:51:12.605Z,76.20
2023-04-18T03:53:40.548Z,76.30
2023-04-18T03:56:07.727Z,75.90
2023-04-18T03:58:47.597Z,76.00
2023-04-18T04:01:14.802Z,75.80
2023-04-18T04:03:41.926Z,75.90
2023-04-18T04:06:09.409Z,75.70
2023-04-18T04:08:36.395Z,75.60
2023-04-18T04:11:03.626Z,75.50
2023-04-18T04:13:30.939Z,75.40
2023-04-18T04:15:58.512Z,75.40
2023-04-18T04:18:31.023Z,75.30
2023-04-18T04:20:59.929Z,75.30
2023-04-18T04:23:41.982Z,75.20
2023-04-18T04:26:11.205Z,74.90
2023-04-18T04:28:46.804Z,75.00
2023-04-18T04:31:18.810Z,75.10
2023-04-18T04:33:46.671Z,75.20
2023-04-18T04:36:19.378Z,75.20
2023-04-18T04:38:49.049Z,75.30
2023-04-18T04:41:17.756Z,75.30
2023-04-18T04:43:46.821Z,75.40
2023-04-18T04:46:20.074Z,75.50
2023-04-18T04:48:49.788Z,75.50
2023-04-18T04:51:16.811Z,75.50
2023-04-18T04:53:43.878Z,75.40
2023-04-18T04:56:11.076Z,75.30
2023-04-18T04:58:47.728Z,75.20
2023-04-18T05:01:41.147Z,75.20
2023-04-18T05:04:08.891Z,75.20
2023-04-18T05:06:37.429Z,75.20
2023-04-18T05:09:06.062Z,75.00
2023-04-18T05:11:33.555Z,74.90
2023-04-18T05:14:00.715Z,74.70
2023-04-18T05:16:27.892Z,74.50
2023-04-18T05:18:55.557Z,74.50
2023-04-18T05:21:24.674Z,74.50
2023-04-18T05:23:51.863Z,74.50
2023-04-18T05:26:19.023Z,74.30
2023-04-18T05:28:46.295Z,74.10
2023-04-18T05:31:13.559Z,74.10
2023-04-18T05:33:40.730Z,74.00
2023-04-18T05:36:09.242Z,73.80
2023-04-18T05:38:36.380Z,73.90
2023-04-18T05:41:06.629Z,73.90
2023-04-18T05:43:33.944Z,73.80
2023-04-18T05:46:01.132Z,73.80
2023-04-18T05:48:28.636Z,73.90
2023-04-18T05:50:55.829Z,73.80
2023-04-18T05:53:23.472Z,73.70
2023-04-18T05:55:50.581Z,73.70
2023-04-18T05:58:17.623Z,73.70
2023-04-18T06:00:44.753Z,73.80
2023-04-18T06:03:12.022Z,74.00
2023-04-18T06:05:41.123Z,74.10
2023-04-18T06:08:08.812Z,74.20
2023-04-18T06:10:37.762Z,74.30
2023-04-18T06:13:09.013Z,74.50
2023-04-18T06:15:56.148Z,74.50
2023-04-18T06:18:26.116Z,74.60
2023-04-18T06:20:54.360Z,74.60
2023-04-18T06:23:21.891Z,74.70
2023-04-18T06:25:49.006Z,74.70
2023-04-18T06:28:16.205Z,74.80
2023-04-18T06:30:43.385Z,74.90
2023-04-18T06:33:11.105Z,75.00
2023-04-18T06:35:38.150Z,75.00
2023-04-18T06:38:05.776Z,75.00
2023-04-18T06:40:32.900Z,75.10
2023-04-18T06:42:59.948Z,75.10
2023-04-18T06:45:31.097Z,75.00
2023-04-18T06:48:00.255Z,75.00
2023-04-18T06:50:27.342Z,75.00
2023-04-18T06:52:54.394Z,74.90
2023-04-18T06:55:25.864Z,74.80
2023-04-18T06:57:54.718Z,74.90
2023-04-18T07:00:22.306Z,74.90
2023-04-18T07:02:49.468Z,74.60
2023-04-18T07:05:16.691Z,74.40
2023-04-18T07:07:43.793Z,74.30
2023-04-18T07:10:14.556Z,74.30
2023-04-18T07:12:43.574Z,73.90
2023-04-18T07:15:11.111Z,73.90
2023-04-18T07:17:39.001Z,73.60
2023-04-18T07:20:07.382Z,73.60
2023-04-18T07:22:34.553Z,73.70
2023-04-18T07:25:06.667Z,73.20
2023-04-18T07:27:39.885Z,73.00
2023-04-18T07:30:08.813Z,73.00
2023-04-18T07:32:36.340Z,73.00
2023-04-18T07:35:04.967Z,72.80
2023-04-18T07:37:32.995Z,72.60
2023-04-18T07:40:00.169Z,72.40
2023-04-18T07:42:28.866Z,72.30
2023-04-18T07:44:59.916Z,72.20
2023-04-18T07:47:29.916Z,72.30
2023-04-18T07:49:58.765Z,72.00
2023-04-18T07:52:28.174Z,72.00
2023-04-18T07:54:55.587Z,71.90
2023-04-18T07:57:25.065Z,71.80
2023-04-18T07:59:53.960Z,71.60
2023-04-18T08:02:25.357Z,71.50
2023-04-18T08:04:59.376Z,71.20
2023-04-18T08:07:29.069Z,71.50
2023-04-18T08:09:56.105Z,71.50
2023-04-18T08:12:30.227Z,71.50
2023-04-18T08:14:57.244Z,71.30
2023-04-18T08:17:24.515Z,71.30
2023-04-18T08:19:51.865Z,71.00
2023-04-18T08:22:18.900Z,71.10
2023-04-18T08:25:03.240Z,70.80
2023-04-18T08:27:32.041Z,70.70
2023-04-18T08:30:04.804Z,70.70
2023-04-18T08:32:32.540Z,70.10
2023-04-18T08:35:00.028Z,69.60
2023-04-18T08:37:28.033Z,69.30
2023-04-18T08:39:55.915Z,69.10
2023-04-18T08:42:23.634Z,68.80
2023-04-18T08:44:51.453Z,68.80
2023-04-18T08:47:19.290Z,67.80
2023-04-18T08:49:47.172Z,67.10
2023-04-18T08:52:14.625Z,66.80
2023-04-18T08:54:42.401Z,66.30
2023-04-18T08:57:12.581Z,65.50
2023-04-18T08:59:40.214Z,65.00
2023-04-18T09:02:09.020Z,64.50
2023-04-18T09:04:49.143Z,64.10
2023-04-18T09:07:17.009Z,63.20
2023-04-18T09:09:50.908Z,62.70
2023-04-18T09:12:22.371Z,61.80
2023-04-18T09:14:51.766Z,61.60
2023-04-18T09:17:42.502Z,60.60
2023-04-18T09:20:10.897Z,61.20
2023-04-18T09:22:54.383Z,61.10
2023-04-18T09:25:35.111Z,59.70
2023-04-18T09:28:03.053Z,58.80
2023-04-18T09:30:34.815Z,58.90
2023-04-18T09:33:06.388Z,59.40
2023-04-18T09:35:34.061Z,58.40
2023-04-18T09:38:01.306Z,58.40
2023-04-18T09:40:28.430Z,57.90
2023-04-18T09:42:55.874Z,58.20
2023-04-18T09:45:23.915Z,57.80
2023-04-18T09:47:51.525Z,56.60
2023-04-18T09:50:22.739Z,56.50
2023-04-18T09:52:50.269Z,56.30
2023-04-18T09:55:20.473Z,56.30
2023-04-18T09:57:48.325Z,55.70
2023-04-18T10:00:24.642Z,56.10
2023-04-18T10:02:58.669Z,56.10
2023-04-18T10:05:28.383Z,56.00
2023-04-18T10:07:58.961Z,55.50
2023-04-18T10:10:27.304Z,54.90
2023-04-18T10:12:56.810Z,55.50
2023-04-18T10:15:26.377Z,55.90
2023-04-18T10:20:33.945Z,56.30
2023-04-18T10:23:21.625Z,56.80
2023-04-18T10:25:49.602Z,56.60
2023-04-18T10:28:17.260Z,55.50
2023-04-18T10:30:44.415Z,54.50
2023-04-18T10:35:58.314Z,53.80
2023-04-18T10:38:45.710Z,54.10
2023-04-18T10:41:25.834Z,54.10
2023-04-18T10:44:15.098Z,53.10
2023-04-18T10:46:52.555Z,52.70
2023-04-18T10:49:27.820Z,53.30
2023-04-18T10:52:01.060Z,53.20
2023-04-18T10:54:28.919Z,52.90
2023-04-18T10:56:57.416Z,52.50
2023-04-18T10:59:25.373Z,51.20
2023-04-18T11:02:30.034Z,50.70
2023-04-18T11:05:07.032Z,50.30
2023-04-18T11:07:48.856Z,50.70
2023-04-18T11:10:26.312Z,50.30
2023-04-18T11:12:54.811Z,49.60
2023-04-18T11:15:23.549Z,49.50
2023-04-18T11:18:01.554Z,48.30
2023-04-18T11:20:29.627Z,48.50
2023-04-18T11:23:00.083Z,48.60
2023-04-18T11:25:31.797Z,49.00
2023-04-18T11:28:00.379Z,48.40
2023-04-18T11:30:27.720Z,47.60
2023-04-18T11:32:56.063Z,47.70
2023-04-18T11:35:24.897Z,48.30
2023-04-18T11:37:54.475Z,47.10
2023-04-18T11:40:21.674Z,47.50
2023-04-18T11:42:48.969Z,47.70
2023-04-18T11:45:16.461Z,47.80
2023-04-18T11:47:43.709Z,47.90
2023-04-18T11:50:11.983Z,48.10
2023-04-18T11:52:45.338Z,48.40
2023-04-18T11:55:13.837Z,48.30
2023-04-18T11:57:42.346Z,48.50
2023-04-18T12:00:12.201Z,48.50
2023-04-18T12:02:43.890Z,48.40
2023-04-18T12:05:12.164Z,48.20
2023-04-18T12:07:40.802Z,48.10
2023-04-18T12:10:19.998Z,48.40
2023-04-18T12:12:54.106Z,47.90
2023-04-18T12:15:24.050Z,47.30
2023-04-18T12:20:25.061Z,47.30
2023-04-18T12:22:54.997Z,47.20
2023-04-18T12:25:29.101Z,46.70
2023-04-18T12:28:15.098Z,45.90
2023-04-18T12:30:42.282Z,45.90
2023-04-18T12:33:09.362Z,45.30
2023-04-18T12:35:36.910Z,45.10
2023-04-18T12:38:05.918Z,45.10
2023-04-18T12:40:33.461Z,45.00
2023-04-18T12:43:03.414Z,44.80
2023-04-18T12:45:31.224Z,44.90
2023-04-18T12:47:58.385Z,45.40
2023-04-18T12:50:26.365Z,44.50
2023-04-18T12:52:54.742Z,43.50
2023-04-18T12:55:22.828Z,43.20
2023-04-18T12:57:51.017Z,43.00
2023-04-18T13:00:18.351Z,42.60
2023-04-18T13:02:46.082Z,41.90
2023-04-18T13:05:14.310Z,41.90
2023-04-18T13:07:43.065Z,41.80
2023-04-18T13:10:13.753Z,42.20
2023-04-18T13:12:41.504Z,42.30
2023-04-18T13:15:11.294Z,42.30
2023-04-18T13:17:39.339Z,41.90
2023-04-18T13:20:12.412Z,41.40
2023-04-18T13:22:40.206Z,41.10
2023-04-18T13:25:08.339Z,41.20
2023-04-18T13:27:35.908Z,41.20
2023-04-18T13:30:04.905Z,41.20
2023-04-18T13:32:33.519Z,41.20
2023-04-18T13:35:07.898Z,41.80
2023-04-18T13:37:36.175Z,42.20
2023-04-18T13:40:10.124Z,42.60
2023-04-18T13:42:38.071Z,42.80
2023-04-18T13:45:05.553Z,43.50
2023-04-18T13:47:33.248Z,43.60
2023-04-18T13:50:04.107Z,42.90
2023-04-18T13:52:31.661Z,41.70
2023-04-18T13:54:59.179Z,41.70
2023-04-18T13:57:32.131Z,41.10
2023-04-18T13:59:59.407Z,40.80
2023-04-18T14:02:27.193Z,40.90
2023-04-18T14:04:56.104Z,40.50
2023-04-18T14:07:23.286Z,40.40
2023-04-18T14:09:52.061Z,40.60
2023-04-18T14:12:21.084Z,40.40
2023-04-18T14:14:48.095Z,40.50
2023-04-18T14:17:15.367Z,41.00
2023-04-18T14:19:42.827Z,41.20
2023-04-18T14:22:09.977Z,41.30
2023-04-18T14:24:37.118Z,41.30
2023-04-18T14:27:04.778Z,41.50
2023-04-18T14:29:34.916Z,41.60
2023-04-18T14:32:10.305Z,41.90
2023-04-18T14:34:38.782Z,42.10
2023-04-18T14:37:06.520Z,41.20
2023-04-18T14:39:36.133Z,41.00
2023-04-18T14:42:05.428Z,41.00
2023-04-18T14:44:34.083Z,41.00
2023-04-18T14:47:02.151Z,39.70
2023-04-18T14:49:29.336Z,39.20
2023-04-18T14:51:58.205Z,38.80
2023-04-18T14:54:26.096Z,38.40
2023-04-18T14:56:53.311Z,38.00
2023-04-18T14:59:20.656Z,38.50
2023-04-18T15:01:48.006Z,38.30
2023-04-18T15:04:15.475Z,38.50
2023-04-18T15:06:42.841Z,38.80
2023-04-18T15:09:09.997Z,38.40
2023-04-18T15:11:38.039Z,38.60
2023-04-18T15:14:05.197Z,38.70
2023-04-18T15:16:32.520Z,39.20
2023-04-18T15:19:00.430Z,38.90
2023-04-18T15:21:27.714Z,38.70
2023-04-18T15:23:54.869Z,38.70
2023-04-18T15:26:22.086Z,38.60
2023-04-18T15:28:49.221Z,37.60
2023-04-18T15:31:19.267Z,37.80
2023-04-18T15:33:46.626Z,37.40
2023-04-18T15:36:13.698Z,37.80
2023-04-18T15:38:40.746Z,37.50
2023-04-18T15:41:08.738Z,37.20
2023-04-18T15:43:36.312Z,37.40
2023-04-18T15:46:07.055Z,37.60
2023-04-18T15:48:34.862Z,37.50
2023-04-18T15:51:02.341Z,37.30
2023-04-18T15:53:31.905Z,37.30
2023-04-18T15:56:01.840Z,37.30
2023-04-18T15:58:30.754Z,37.40
2023-04-18T16:00:57.904Z,37.40
2023-04-18T16:03:26.335Z,37.40
2023-04-18T16:05:53.528Z,37.30
2023-04-18T16:08:20.799Z,37.30
2023-04-18T16:10:48.019Z,37.20
2023-04-18T16:13:15.349Z,37.30
2023-04-18T16:15:42.866Z,37.80
2023-04-18T16:18:10.419Z,37.70
2023-04-18T16:20:37.480Z,37.50
2023-04-18T16:23:04.639Z,37.70
2023-04-18T16:25:31.955Z,37.70
2023-04-18T16:28:00.852Z,37.90
2023-04-18T16:30:27.912Z,38.00
2023-04-18T16:32:55.883Z,38.30
2023-04-18T16:35:23.885Z,38.20
2023-04-18T16:37:50.973Z,38.30
2023-04-18T16:40:18.070Z,38.70
2023-04-18T16:42:45.327Z,38.70
2023-04-18T16:45:12.364Z,38.60
2023-04-18T16:47:43.123Z,38.70
2023-04-18T16:50:10.502Z,38.70
2023-04-18T16:52:37.738Z,39.10
2023-04-18T16:55:05.227Z,39.10
2023-04-18T16:57:32.370Z,39.30
2023-04-18T17:00:02.142Z,39.00
2023-04-18T17:02:31.863Z,39.30
2023-04-18T17:04:59.026Z,39.40
2023-04-18T17:07:26.948Z,39.30
2023-04-18T17:09:54.793Z,39.50
2023-04-18T17:12:21.886Z,39.40
2023-04-18T17:14:49.965Z,39.60
2023-04-18T17:17:16.980Z,39.90
2023-04-18T17:19:44.022Z,40.10
2023-04-18T17:22:11.065Z,40.20
2023-04-18T17:24:39.241Z,40.30
2023-04-18T17:27:06.343Z,40.40
2023-04-18T17:29:39.118Z,40.60
2023-04-18T17:32:06.309Z,40.60
2023-04-18T17:34:36.890Z,40.90
2023-04-18T17:37:06.774Z,41.10
2023-04-18T17:39:33.887Z,41.30
2023-04-18T17:42:04.185Z,41.40
2023-04-18T17:44:31.714Z,41.40
2023-04-18T17:47:01.951Z,41.60
2023-04-18T17:49:34.766Z,41.80
2023-04-18T17:52:04.736Z,41.90
2023-04-18T17:54:32.484Z,42.10
2023-04-18T17:56:59.941Z,42.10
2023-04-18T17:59:29.118Z,42.40
2023-04-18T18:01:56.747Z,42.30
2023-04-18T18:04:26.465Z,42.50
2023-04-18T18:06:58.777Z,42.60
2023-04-18T18:09:25.861Z,42.60
2023-04-18T18:11:55.383Z,42.80
2023-04-18T18:14:23.626Z,43.00
2023-04-18T18:16:50.921Z,43.20
2023-04-18T18:19:18.112Z,43.50
2023-04-18T18:21:45.303Z,43.80
2023-04-18T18:24:12.734Z,44.00
2023-04-18T18:26:39.864Z,44.30
2023-04-18T18:29:11.167Z,44.40
2023-04-18T18:31:38.802Z,44.70
2023-04-18T18:34:07.030Z,44.80
2023-04-18T18:36:34.969Z,45.20
2023-04-18T18:39:06.087Z,45.50
2023-04-18T18:41:33.979Z,45.70
2023-04-18T18:44:02.806Z,45.90
2023-04-18T18:46:29.875Z,46.10
2023-04-18T18:48:57.289Z,46.30
2023-04-18T18:51:24.998Z,46.50
2023-04-18T18:53:51.978Z,46.60
2023-04-18T18:56:19.426Z,46.80
2023-04-18T18:58:46.957Z,46.90
2023-04-18T19:01:14.182Z,46.90
2023-04-18T19:03:41.750Z,47.20
2023-04-18T19:06:13.277Z,47.40
2023-04-18T19:08:40.412Z,47.70
2023-04-18T19:11:07.801Z,47.90
2023-04-18T19:13:35.023Z,48.00
2023-04-18T19:16:02.969Z,48.20
2023-04-18T19:18:32.153Z,48.60
2023-04-18T19:21:08.293Z,49.00
2023-04-18T19:23:37.199Z,49.30
2023-04-18T19:26:08.130Z,49.60
2023-04-18T19:28:36.238Z,50.00
2023-04-18T19:31:03.956Z,50.90
2023-04-18T19:33:31.155Z,51.50
2023-04-18T19:35:58.838Z,52.30
2023-04-18T19:38:28.704Z,53.40
2023-04-18T19:40:55.811Z,53.90
2023-04-18T19:43:23.030Z,54.90
2023-04-18T19:45:54.486Z,55.40
2023-04-18T19:48:22.916Z,55.90
2023-04-18T19:50:50.130Z,56.40
2023-04-18T19:53:18.982Z,56.60
2023-04-18T19:55:46.243Z,56.90
2023-04-18T19:58:49.103Z,57.10
2023-04-18T20:01:17.905Z,57.60
2023-04-18T20:03:46.060Z,57.60
2023-04-18T20:06:13.602Z,57.90
2023-04-18T20:08:45.825Z,58.30
2023-04-18T20:11:14.032Z,58.60
2023-04-18T20:13:41.652Z,59.00
2023-04-18T20:16:09.039Z,59.00
2023-04-18T20:18:40.961Z,59.00
2023-04-18T20:21:09.390Z,59.30
2023-04-18T20:23:36.654Z,59.30
2023-04-18T20:26:04.234Z,59.60
2023-04-18T20:28:31.974Z,59.90
2023-04-18T20:30:59.719Z,60.30
2023-04-18T20:33:27.550Z,60.70
2023-04-18T20:35:54.900Z,60.90
2023-04-18T20:38:26.203Z,61.10
2023-04-18T20:40:54.077Z,61.60
2023-04-18T20:43:22.592Z,62.00
2023-04-18T20:45:53.918Z,62.20
2023-04-18T20:48:21.237Z,62.30
2023-04-18T20:50:54.262Z,62.40
2023-04-18T20:53:22.770Z,62.40
2023-04-18T20:55:50.746Z,62.70
2023-04-18T20:58:19.814Z,62.70
2023-04-18T21:00:48.271Z,62.80
2023-04-18T21:03:16.274Z,62.60
2023-04-18T21:05:43.839Z,62.60
2023-04-18T21:08:11.424Z,62.80
2023-04-18T21:10:39.803Z,62.50
2023-04-18T21:13:07.140Z,62.60
2023-04-18T21:15:35.803Z,62.70
2023-04-18T21:18:03.067Z,62.50
2023-04-18T21:20:31.446Z,62.80
2023-04-18T21:22:58.491Z,62.90
2023-04-18T21:25:25.607Z,63.20
2023-04-18T21:27:52.718Z,63.40
2023-04-18T21:30:20.143Z,63.40
2023-04-18T21:32:49.233Z,63.50
2023-04-18T21:35:20.186Z,63.80
2023-04-18T21:37:51.788Z,64.10
2023-04-18T21:40:18.926Z,64.10
2023-04-18T21:42:46.835Z,64.50
2023-04-18T21:45:17.279Z,64.70
2023-04-18T21:47:44.380Z,64.80
2023-04-18T21:50:11.589Z,65.20
2023-04-18T21:52:39.361Z,65.40
2023-04-18T21:55:06.565Z,65.70
2023-04-18T21:57:37.178Z,65.90
2023-04-18T22:00:08.424Z,66.20
2023-04-18T22:02:37.878Z,66.50
2023-04-18T22:05:07.554Z,66.70
2023-04-18T22:07:40.811Z,67.00
2023-04-18T22:10:18.411Z,67.40
2023-04-18T22:12:45.800Z,67.70
2023-04-18T22:15:12.835Z,68.00
2023-04-18T22:17:41.761Z,68.30
2023-04-18T22:20:10.789Z,68.60
2023-04-18T22:22:37.806Z,68.50
2023-04-18T22:25:07.831Z,68.70
2023-04-18T22:27:34.889Z,68.80
2023-04-18T22:30:02.967Z,68.60
2023-04-18T22:32:31.083Z,68.40
2023-04-18T22:34:58.307Z,68.50
2023-04-18T22:37:25.486Z,68.50
2023-04-18T22:39:52.512Z,68.50
2023-04-18T22:42:19.618Z,68.60
2023-04-18T22:44:47.336Z,68.50
2023-04-18T22:47:14.387Z,68.70
2023-04-18T22:49:41.997Z,68.30
2023-04-18T22:52:08.997Z,68.20
2023-04-18T22:54:39.805Z,68.20
2023-04-18T22:57:06.866Z,68.50
2023-04-18T22:59:34.669Z,68.00
2023-04-18T23:02:02.442Z,68.00
2023-04-18T23:04:32.442Z,67.90
2023-04-18T23:06:59.588Z,67.70
2023-04-18T23:09:27.822Z,67.70
2023-04-18T23:11:54.885Z,67.30
2023-04-18T23:14:22.588Z,67.40
2023-04-18T23:16:52.566Z,67.40
2023-04-18T23:19:19.704Z,67.40
2023-04-18T23:21:48.975Z,67.40
2023-04-18T23:24:16.846Z,67.50
2023-04-18T23:26:43.908Z,67.40
2023-04-18T23:29:10.859Z,67.30
2023-04-18T23:31:37.863Z,67.50
2023-04-18T23:34:05.059Z,67.40
2023-04-18T23:36:33.017Z,67.50
2023-04-18T23:39:00.825Z,67.40
2023-04-18T23:41:27.928Z,67.30
2023-04-18T23:43:55.519Z,67.20
2023-04-18T23:46:22.740Z,67.20
2023-04-18T23:48:49.977Z,67.20
2023-04-18T23:51:16.989Z,67.20
2023-04-18T23:53:44.095Z,67.40
2023-04-18T23:56:11.182Z,67.30
2023-04-18T23:58:38.134Z,67.30
